Luxor, Egypt

7:57 PM EET on July 28, 2016 (GMT +0200)
Luxor International | | Change Station

Elev 325 ft 25.67 °N, 32.71 °E | Updated 57 minutes ago

Clear
Clear
97 °F
Feels Like 96 °F
N
8
Wind Variable Wind from West

Today
High -- | Low -- °F
--% Chance of Precip.
Yesterday
High -- | Low -- °F
Precip. -- in
Pressure 29.59 in
Visibility -9999.0 miles
Clouds
Heat Index 96 °F
Dew Point 59 °F
Humidity 28%
Rainfall 0.00 in
Snow Depth Not available.
5:13 AM 6:37 PM
Waning Crescent, 30% visible
METAR HELX 281700Z 27007KT CAVOK 36/15 Q1002 NOSIG
Pressure 29.59 in
Visibility -9999.0 miles
Clouds
Heat Index 96 °F
Dew Point 59 °F
Humidity 28%
Rainfall 0.00 in
Snow Depth Not available.
5:13 AM 6:37 PM
Waning Crescent, 30% visible
METAR HELX 281700Z 27007KT CAVOK 36/15 Q1002 NOSIG

10-Day Weather Forecast

No radar image for this location.
×

Almanac

Astronomy

Jul. 28, 2016 Rise Set
Actual Time
Civil Twilight
Nautical Twilight
Astronomical Twilight
Moon
Length of Visible Light
Length of Day
Tomorrow will be .
, % of the Moon is Illuminated

Today's Extremes

Country Highs Country Lows

Community

WunderPhotos

Upload Photos

1,928,163 photos uploaded!

WunderBlog® & News

Nearby

Air Quality

  Air Quality AQ Index Pollutant
Not available.

Snow Depth

Station Depth Elevation

Earthquake Activity

City Distance Mag. Time & Date
Minimum magnitude displayed is 2.5.

Coastal Water Temperatures

Place Temperature

Stations

Nearby Weather Stations

Station Location Temp. Windchill Dew Point Humidity Wind Precip. Elev Updated Type